createdAt,value
2017-05-06T00:00:31.633Z,16.02
2017-05-06T00:02:59.559Z,16.08
2017-05-06T00:05:27.886Z,14.44
2017-05-06T00:07:55.837Z,15.72
2017-05-06T00:10:23.768Z,15.68
2017-05-06T00:12:52.123Z,17.36
2017-05-06T00:15:20.084Z,15.50
2017-05-06T00:17:48.004Z,16.70
2017-05-06T00:20:15.931Z,16.12
2017-05-06T00:22:43.884Z,16.58
2017-05-06T00:25:11.813Z,16.60
2017-05-06T00:27:39.338Z,18.10
2017-05-06T00:30:07.287Z,17.52
2017-05-06T00:32:35.216Z,16.12
2017-05-06T00:35:03.144Z,15.90
2017-05-06T00:37:31.095Z,16.54
2017-05-06T00:39:59.023Z,16.30
2017-05-06T00:42:26.956Z,17.30
2017-05-06T00:44:54.909Z,19.36
2017-05-06T00:47:22.836Z,16.56
2017-05-06T00:49:50.760Z,17.36
2017-05-06T00:52:18.321Z,16.34
2017-05-06T00:54:46.247Z,15.74
2017-05-06T00:57:14.180Z,16.82
2017-05-06T00:59:42.513Z,15.12
2017-05-06T01:02:10.439Z,15.86
2017-05-06T01:04:38.739Z,15.74
2017-05-06T01:07:06.693Z,15.44
2017-05-06T01:09:34.991Z,16.88
2017-05-06T01:12:02.916Z,15.74
2017-05-06T01:14:30.890Z,16.02
2017-05-06T01:16:58.419Z,16.40
2017-05-06T01:19:26.344Z,15.12
2017-05-06T01:21:54.300Z,17.64
2017-05-06T01:24:22.595Z,17.72
2017-05-06T01:26:50.523Z,15.76
2017-05-06T01:29:18.480Z,16.58
2017-05-06T01:31:46.412Z,17.14
2017-05-06T01:34:14.344Z,15.34
2017-05-06T01:36:42.343Z,16.64
2017-05-06T01:39:10.623Z,16.66
2017-05-06T01:41:38.542Z,16.90
2017-05-06T01:44:06.499Z,16.20
2017-05-06T01:46:34.431Z,17.50
2017-05-06T01:49:02.351Z,17.32
2017-05-06T01:51:30.317Z,16.66
2017-05-06T01:53:58.243Z,16.48
2017-05-06T01:56:25.770Z,15.90
2017-05-06T01:58:53.326Z,14.82
2017-05-06T02:01:21.261Z,14.90
2017-05-06T02:03:49.182Z,15.54
2017-05-06T02:06:17.515Z,15.78
2017-05-06T02:08:45.444Z,16.40
2017-05-06T02:11:13.376Z,16.07
2017-05-06T02:13:40.950Z,15.70
2017-05-06T02:16:08.867Z,17.12
2017-05-06T02:18:36.839Z,16.98
2017-05-06T02:21:04.792Z,16.08
2017-05-06T02:23:32.724Z,16.14
2017-05-06T02:26:00.652Z,17.08
2017-05-06T02:28:28.604Z,17.62
2017-05-06T02:30:56.531Z,16.14
2017-05-06T02:33:24.068Z,16.70
2017-05-06T02:35:52.019Z,16.90
2017-05-06T02:38:19.954Z,17.94
2017-05-06T02:40:47.892Z,17.38
2017-05-06T02:43:16.056Z,17.40
2017-05-06T02:45:43.980Z,17.32
2017-05-06T02:48:11.912Z,17.57
2017-05-06T02:50:39.472Z,15.88
2017-05-06T02:53:07.412Z,17.12
2017-05-06T02:55:35.381Z,16.82
2017-05-06T02:58:02.928Z,16.66
2017-05-06T03:00:30.869Z,16.45
2017-05-06T03:02:58.799Z,17.87
2017-05-06T03:05:26.772Z,17.20
2017-05-06T03:07:54.700Z,17.25
2017-05-06T03:10:22.658Z,17.25
2017-05-06T03:12:50.612Z,16.42
2017-05-06T03:15:18.152Z,15.96
2017-05-06T03:17:46.084Z,19.26
2017-05-06T03:20:13.744Z,17.98
2017-05-06T03:22:41.674Z,17.58
2017-05-06T03:25:09.984Z,19.30
2017-05-06T03:27:37.939Z,17.92
2017-05-06T03:30:05.869Z,18.67
2017-05-06T03:32:33.800Z,18.88
2017-05-06T03:35:01.756Z,16.56
2017-05-06T03:37:29.713Z,18.03
2017-05-06T03:39:57.663Z,17.60
2017-05-06T03:42:26.120Z,17.96
2017-05-06T03:44:54.055Z,18.58
2017-05-06T03:47:21.993Z,20.10
2017-05-06T03:49:50.320Z,17.15
2017-05-06T03:52:18.259Z,17.80
2017-05-06T03:54:46.192Z,19.72
2017-05-06T03:57:13.768Z,17.57
2017-05-06T03:59:42.064Z,17.93
2017-05-06T04:02:10.004Z,18.62
2017-05-06T04:04:37.568Z,18.57
2017-05-06T04:07:05.504Z,18.18
2017-05-06T04:09:33.442Z,18.52
2017-05-06T04:12:01.406Z,21.08
2017-05-06T04:14:28.969Z,19.25
2017-05-06T04:16:56.905Z,19.98
2017-05-06T04:19:24.845Z,20.23
2017-05-06T04:21:52.803Z,18.33
2017-05-06T04:24:20.737Z,19.23
2017-05-06T04:26:48.668Z,19.95
2017-05-06T04:29:16.628Z,20.22
2017-05-06T04:31:44.564Z,19.47
2017-05-06T04:34:12.498Z,17.78
2017-05-06T04:36:40.800Z,19.70
2017-05-06T04:39:08.732Z,20.37
2017-05-06T04:41:36.637Z,19.47
2017-05-06T04:44:04.628Z,19.90
2017-05-06T04:46:32.559Z,21.13
2017-05-06T04:49:00.483Z,20.44
2017-05-06T04:51:28.448Z,20.33
2017-05-06T04:53:56.383Z,20.66
2017-05-06T04:56:24.314Z,18.10
2017-05-06T04:58:52.264Z,22.04
2017-05-06T05:01:20.187Z,21.64
2017-05-06T05:03:48.483Z,21.76
2017-05-06T05:06:16.436Z,20.84
2017-05-06T05:08:43.971Z,19.86
2017-05-06T05:11:11.896Z,22.04
2017-05-06T05:13:39.851Z,20.20
2017-05-06T05:16:07.775Z,21.70
2017-05-06T05:18:35.699Z,21.00
2017-05-06T05:21:03.255Z,22.34
2017-05-06T05:23:31.183Z,21.60
2017-05-06T05:25:59.107Z,22.74
2017-05-06T05:28:27.065Z,21.60
2017-05-06T05:30:54.988Z,22.08
2017-05-06T05:33:22.912Z,20.30
2017-05-06T05:35:50.480Z,23.48
2017-05-06T05:38:18.407Z,22.54
2017-05-06T05:40:46.707Z,20.82
2017-05-06T05:43:14.664Z,22.92
2017-05-06T05:45:42.962Z,21.72
2017-05-06T05:48:10.896Z,20.70
2017-05-06T05:50:38.851Z,20.92
2017-05-06T05:53:06.784Z,22.64
2017-05-06T05:55:34.322Z,20.46
2017-05-06T05:58:02.276Z,20.22
2017-05-06T06:00:30.582Z,19.86
2017-05-06T06:02:58.515Z,22.10
2017-05-06T06:05:26.092Z,20.64
2017-05-06T06:07:53.619Z,19.16
2017-05-06T06:10:21.551Z,20.20
2017-05-06T06:12:49.504Z,20.38
2017-05-06T06:15:17.459Z,21.04
2017-05-06T06:17:45.774Z,19.88
2017-05-06T06:20:13.727Z,20.56
2017-05-06T06:22:41.664Z,19.32
2017-05-06T06:25:09.216Z,21.50
2017-05-06T06:27:37.164Z,19.86
2017-05-06T06:30:05.107Z,19.24
2017-05-06T06:32:33.040Z,20.70
2017-05-06T06:35:01.003Z,19.42
2017-05-06T06:37:28.543Z,20.48
2017-05-06T06:39:56.476Z,19.90
2017-05-06T06:42:24.435Z,23.92
2017-05-06T06:44:52.363Z,21.32
2017-05-06T06:47:20.295Z,18.70
2017-05-06T06:49:48.252Z,18.52
2017-05-06T06:52:16.180Z,17.72
2017-05-06T06:54:44.112Z,19.20
2017-05-06T06:57:12.071Z,19.48
2017-05-06T06:59:40.000Z,17.14
2017-05-06T07:02:08.298Z,17.38
2017-05-06T07:04:35.860Z,17.32
2017-05-06T07:07:03.352Z,18.48
2017-05-06T07:09:31.319Z,18.30
2017-05-06T07:11:59.279Z,18.12
2017-05-06T07:14:27.211Z,18.28
2017-05-06T07:16:55.512Z,17.04
2017-05-06T07:19:23.077Z,16.96
2017-05-06T07:21:51.003Z,16.02
2017-05-06T07:24:18.940Z,18.30
2017-05-06T07:26:46.900Z,17.00
2017-05-06T07:29:14.440Z,17.86
2017-05-06T07:31:42.371Z,17.74
2017-05-06T07:34:10.328Z,17.32
2017-05-06T07:36:38.261Z,16.42
2017-05-06T07:39:06.190Z,17.48
2017-05-06T07:41:33.751Z,15.98
2017-05-06T07:44:01.693Z,15.28
2017-05-06T07:46:29.615Z,16.94
2017-05-06T07:48:57.584Z,16.26
2017-05-06T07:51:25.520Z,16.36
2017-05-06T07:53:53.055Z,14.70
2017-05-06T07:56:21.012Z,14.46
2017-05-06T07:58:48.935Z,17.38
2017-05-06T08:01:17.235Z,15.40
2017-05-06T08:03:45.612Z,16.26
2017-05-06T08:06:13.539Z,14.90
2017-05-06T08:08:41.527Z,14.42
2017-05-06T08:11:09.471Z,14.68
2017-05-06T08:13:37.399Z,13.64
2017-05-06T08:16:05.324Z,14.10
2017-05-06T08:18:33.224Z,14.30
2017-05-06T08:21:01.530Z,14.20
2017-05-06T08:23:29.466Z,14.10
2017-05-06T08:25:57.790Z,13.90
2017-05-06T08:28:25.728Z,12.04
2017-05-06T08:30:53.662Z,14.58
2017-05-06T08:33:21.615Z,13.06
2017-05-06T08:35:49.548Z,12.18
2017-05-06T08:38:17.479Z,11.50
2017-05-06T08:40:45.435Z,12.86
2017-05-06T08:43:13.363Z,12.46
2017-05-06T08:45:41.295Z,13.56
2017-05-06T08:48:09.624Z,12.26
2017-05-06T08:50:37.557Z,11.94
2017-05-06T08:53:05.851Z,10.56
2017-05-06T08:55:33.803Z,9.38
2017-05-06T08:58:01.331Z,9.48
2017-05-06T09:00:29.259Z,9.10
2017-05-06T09:02:57.210Z,9.82
2017-05-06T09:05:25.503Z,9.84
2017-05-06T09:07:53.427Z,9.64
2017-05-06T09:10:20.979Z,8.44
2017-05-06T09:12:48.547Z,7.58
2017-05-06T09:15:16.556Z,6.66
2017-05-06T09:17:44.500Z,8.36
2017-05-06T09:20:12.419Z,7.94
2017-05-06T09:22:40.347Z,18.80
2017-05-06T09:25:08.672Z,8.78
2017-05-06T09:27:36.602Z,8.40
2017-05-06T09:30:04.899Z,7.94
2017-05-06T09:32:32.452Z,7.14
2017-05-06T09:35:00.395Z,7.14
2017-05-06T09:37:28.327Z,7.50
2017-05-06T09:39:55.871Z,7.38
2017-05-06T09:42:23.787Z,7.14
2017-05-06T09:44:51.336Z,6.32
2017-05-06T09:47:19.293Z,8.00
2017-05-06T09:49:47.212Z,6.74
2017-05-06T09:52:15.513Z,5.96
2017-05-06T09:54:43.472Z,6.38
2017-05-06T09:57:11.400Z,6.46
2017-05-06T09:59:38.927Z,7.00
2017-05-06T10:02:06.876Z,6.40
2017-05-06T10:04:34.813Z,10.64
2017-05-06T10:07:02.731Z,6.56
2017-05-06T10:09:30.684Z,7.30
2017-05-06T10:11:58.607Z,6.66
2017-05-06T10:14:26.139Z,6.72
2017-05-06T10:16:54.088Z,7.74
2017-05-06T10:19:22.007Z,6.44
2017-05-06T10:21:49.936Z,6.92
2017-05-06T10:24:17.884Z,6.52
2017-05-06T10:26:45.803Z,7.00
2017-05-06T10:29:13.728Z,6.26
2017-05-06T10:31:41.675Z,6.60
2017-05-06T10:34:09.972Z,7.18
2017-05-06T10:36:37.507Z,7.30
2017-05-06T10:39:05.451Z,8.60
2017-05-06T10:41:33.388Z,6.98
2017-05-06T10:44:00.917Z,6.52
2017-05-06T10:46:29.236Z,6.36
2017-05-06T10:48:57.159Z,7.00
2017-05-06T10:51:25.087Z,6.28
2017-05-06T10:53:53.030Z,7.30
2017-05-06T10:56:20.555Z,6.02
2017-05-06T10:58:48.863Z,6.64
2017-05-06T11:01:16.408Z,5.86
2017-05-06T11:03:44.705Z,6.60
2017-05-06T11:06:12.623Z,5.70
2017-05-06T11:08:40.575Z,6.08
2017-05-06T11:11:08.500Z,6.84
2017-05-06T11:13:36.792Z,6.52
2017-05-06T11:16:04.860Z,7.72
2017-05-06T11:18:32.853Z,6.98
2017-05-06T11:21:00.776Z,6.80
2017-05-06T11:23:28.331Z,6.40
2017-05-06T11:25:56.251Z,6.30
2017-05-06T11:28:24.179Z,6.72
2017-05-06T11:30:52.503Z,7.80
2017-05-06T11:33:20.423Z,6.52
2017-05-06T11:35:48.351Z,8.72
2017-05-06T11:38:16.303Z,8.30
2017-05-06T11:40:44.230Z,7.92
2017-05-06T11:43:12.159Z,7.28
2017-05-06T11:45:39.712Z,7.32
2017-05-06T11:48:07.646Z,7.44
2017-05-06T11:50:35.939Z,5.96
2017-05-06T11:53:03.896Z,5.84
2017-05-06T11:55:32.222Z,7.68
2017-05-06T11:58:00.147Z,7.04
2017-05-06T12:00:28.124Z,6.76
2017-05-06T12:02:56.043Z,8.30
2017-05-06T12:05:23.971Z,8.18
2017-05-06T12:07:51.921Z,7.68
2017-05-06T12:10:20.215Z,8.18
2017-05-06T12:12:48.165Z,8.90
2017-05-06T12:15:16.511Z,8.10
2017-05-06T12:17:44.459Z,8.02
2017-05-06T12:20:12.443Z,7.56
2017-05-06T12:22:40.327Z,9.26
2017-05-06T12:25:08.313Z,9.02
2017-05-06T12:27:35.855Z,7.74
2017-05-06T12:30:03.783Z,7.18
2017-05-06T12:32:31.731Z,8.64
2017-05-06T12:34:59.654Z,8.00
2017-05-06T12:37:27.594Z,8.94
2017-05-06T12:39:55.539Z,7.82
2017-05-06T12:42:23.487Z,8.50
2017-05-06T12:44:51.424Z,9.44
2017-05-06T12:47:19.348Z,8.58
2017-05-06T12:49:47.676Z,7.76
2017-05-06T12:52:15.600Z,7.88
2017-05-06T12:54:43.143Z,8.38
2017-05-06T12:57:11.463Z,8.60
2017-05-06T12:59:39.388Z,8.82
2017-05-06T13:02:07.684Z,8.38
2017-05-06T13:04:35.631Z,8.18
2017-05-06T13:07:03.567Z,9.28
2017-05-06T13:09:31.494Z,8.38
2017-05-06T13:11:59.815Z,9.20
2017-05-06T13:14:27.744Z,8.92
2017-05-06T13:16:55.668Z,8.82
2017-05-06T13:19:23.619Z,8.96
2017-05-06T13:21:51.157Z,8.90
2017-05-06T13:24:19.081Z,8.72
2017-05-06T13:26:46.635Z,9.24
2017-05-06T13:29:14.176Z,8.94
2017-05-06T13:31:42.095Z,8.50
2017-05-06T13:34:10.428Z,8.24
2017-05-06T13:36:38.355Z,7.88
2017-05-06T13:39:06.278Z,8.10
2017-05-06T13:41:34.236Z,8.18
2017-05-06T13:44:02.159Z,8.50
2017-05-06T13:46:30.084Z,8.70
2017-05-06T13:48:58.026Z,8.66
2017-05-06T13:51:25.955Z,9.40
2017-05-06T13:53:53.482Z,8.66
2017-05-06T13:56:21.439Z,9.20
2017-05-06T13:58:48.972Z,7.96
2017-05-06T14:01:16.904Z,8.50
2017-05-06T14:03:44.463Z,8.10
2017-05-06T14:06:12.388Z,8.84
2017-05-06T14:08:40.312Z,7.84
2017-05-06T14:11:08.639Z,6.90
2017-05-06T14:13:36.568Z,7.48
2017-05-06T14:16:04.864Z,6.94
2017-05-06T14:18:32.427Z,7.74
2017-05-06T14:21:00.365Z,7.32
2017-05-06T14:23:27.895Z,8.94
2017-05-06T14:25:55.853Z,9.72
2017-05-06T14:28:23.777Z,8.56
2017-05-06T14:30:52.067Z,8.14
2017-05-06T14:33:20.029Z,7.48
2017-05-06T14:35:47.956Z,13.64
2017-05-06T14:38:15.883Z,6.54
2017-05-06T14:40:43.838Z,8.10
2017-05-06T14:43:12.132Z,7.60
2017-05-06T14:45:40.060Z,6.74
2017-05-06T14:48:07.624Z,7.30
2017-05-06T14:50:35.571Z,7.54
2017-05-06T14:53:03.508Z,7.08
2017-05-06T14:55:31.471Z,6.48
2017-05-06T14:57:59.407Z,6.82
2017-05-06T15:00:26.936Z,7.30
2017-05-06T15:02:54.888Z,7.62
2017-05-06T15:05:22.411Z,6.54
2017-05-06T15:07:49.956Z,7.22
2017-05-06T15:10:17.512Z,6.60
2017-05-06T15:12:45.439Z,7.90
2017-05-06T15:15:13.376Z,6.56
2017-05-06T15:17:41.704Z,6.80
2017-05-06T15:20:09.596Z,6.50
2017-05-06T15:22:37.736Z,6.32
2017-05-06T15:25:05.699Z,6.06
2017-05-06T15:27:33.624Z,6.34
2017-05-06T15:30:01.572Z,6.50
2017-05-06T15:32:29.528Z,6.70
2017-05-06T15:34:57.461Z,6.10
2017-05-06T15:37:25.415Z,6.26
2017-05-06T15:39:53.740Z,6.30
2017-05-06T15:42:21.670Z,5.86
2017-05-06T15:44:49.224Z,5.70
2017-05-06T15:47:16.751Z,5.78
2017-05-06T15:49:44.700Z,5.82
2017-05-06T15:52:12.627Z,5.46
2017-05-06T15:54:40.155Z,5.96
2017-05-06T15:57:08.103Z,6.14
2017-05-06T15:59:36.031Z,7.90
2017-05-06T16:02:03.975Z,5.52
2017-05-06T16:04:32.039Z,6.78
2017-05-06T16:06:59.952Z,5.94
2017-05-06T16:09:27.913Z,5.84
2017-05-06T16:11:55.861Z,6.46
2017-05-06T16:14:24.184Z,6.04
2017-05-06T16:16:52.136Z,6.04
2017-05-06T16:19:20.084Z,6.70
2017-05-06T16:21:48.020Z,5.78
2017-05-06T16:24:15.971Z,6.06
2017-05-06T16:26:43.923Z,6.66
2017-05-06T16:29:11.835Z,6.28
2017-05-06T16:31:39.792Z,5.98
2017-05-06T16:34:07.723Z,6.72
2017-05-06T16:36:35.682Z,7.28
2017-05-06T16:39:03.612Z,6.42
2017-05-06T16:41:31.531Z,5.62
2017-05-06T16:43:59.489Z,7.28
2017-05-06T16:46:27.041Z,7.58
2017-05-06T16:48:55.334Z,6.68
2017-05-06T16:51:23.665Z,6.86
2017-05-06T16:53:51.606Z,6.02
2017-05-06T16:56:19.528Z,6.02
2017-05-06T16:58:47.476Z,7.18
2017-05-06T17:01:15.400Z,6.62
2017-05-06T17:03:43.327Z,6.74
2017-05-06T17:06:11.254Z,6.24
2017-05-06T17:08:39.227Z,6.92
2017-05-06T17:11:07.159Z,6.92
2017-05-06T17:13:35.495Z,6.26
2017-05-06T17:16:03.425Z,6.30
2017-05-06T17:18:31.356Z,6.06
2017-05-06T17:20:59.308Z,6.92
2017-05-06T17:23:27.229Z,5.96
2017-05-06T17:25:55.527Z,6.54
2017-05-06T17:28:23.479Z,6.30
2017-05-06T17:30:51.404Z,6.56
2017-05-06T17:33:19.341Z,6.16
2017-05-06T17:35:47.289Z,5.96
2017-05-06T17:38:15.216Z,7.10
2017-05-06T17:40:43.141Z,7.04
2017-05-06T17:43:11.109Z,7.24
2017-05-06T17:45:39.060Z,7.18
2017-05-06T17:48:06.583Z,7.12
2017-05-06T17:50:34.557Z,6.72
2017-05-06T17:53:02.486Z,7.46
2017-05-06T17:55:30.407Z,7.02
2017-05-06T17:57:58.365Z,6.24
2017-05-06T18:00:26.292Z,6.28
2017-05-06T18:02:54.227Z,6.38
2017-05-06T18:05:22.186Z,6.72
2017-05-06T18:07:50.110Z,7.62
2017-05-06T18:10:18.040Z,7.62
2017-05-06T18:12:46.393Z,6.38
2017-05-06T18:15:14.325Z,7.24
2017-05-06T18:17:42.256Z,6.58
2017-05-06T18:20:10.603Z,7.54
2017-05-06T18:22:38.586Z,6.90
2017-05-06T18:25:06.154Z,6.58
2017-05-06T18:27:34.143Z,5.88
2017-05-06T18:30:02.187Z,6.20
2017-05-06T18:32:30.207Z,5.92
2017-05-06T18:34:58.230Z,6.14
2017-05-06T18:37:26.281Z,6.00
2017-05-06T18:39:54.300Z,6.36
2017-05-06T18:42:22.798Z,6.30
2017-05-06T18:44:50.776Z,5.88
2017-05-06T18:47:18.869Z,6.64
2017-05-06T18:49:47.099Z,6.10
2017-05-06T18:52:14.967Z,6.10
2017-05-06T18:54:43.057Z,5.86
2017-05-06T18:57:11.419Z,6.12
2017-05-06T18:59:39.680Z,5.70
2017-05-06T19:02:08.475Z,5.62
2017-05-06T19:04:36.916Z,5.44
2017-05-06T19:07:05.418Z,6.72
2017-05-06T19:09:33.817Z,5.86
2017-05-06T19:12:02.505Z,6.06
2017-05-06T19:14:30.945Z,5.50
2017-05-06T19:16:59.827Z,6.36
2017-05-06T19:19:29.289Z,6.12
2017-05-06T19:21:58.478Z,5.72
2017-05-06T19:24:27.675Z,5.68
2017-05-06T19:26:56.291Z,6.08
2017-05-06T19:29:25.341Z,4.76
2017-05-06T19:31:54.351Z,5.90
2017-05-06T19:34:23.294Z,5.10
2017-05-06T19:36:52.700Z,5.12
2017-05-06T19:39:21.464Z,4.32
2017-05-06T19:41:50.379Z,4.96
2017-05-06T19:44:19.741Z,4.76
2017-05-06T19:46:48.613Z,5.44
2017-05-06T19:49:17.547Z,4.64
2017-05-06T19:51:46.551Z,5.34
2017-05-06T19:54:15.485Z,5.06
2017-05-06T19:56:44.448Z,6.18
2017-05-06T19:59:13.886Z,5.08
2017-05-06T20:01:42.410Z,5.08
2017-05-06T20:04:11.274Z,5.72
2017-05-06T20:06:40.289Z,5.26
2017-05-06T20:09:09.193Z,5.50
2017-05-06T20:11:37.718Z,5.16
2017-05-06T20:14:07.380Z,5.30
2017-05-06T20:16:36.470Z,5.60
2017-05-06T20:19:05.421Z,4.66
2017-05-06T20:21:34.499Z,5.64
2017-05-06T20:24:03.787Z,5.68
2017-05-06T20:26:32.772Z,4.76
2017-05-06T20:29:01.944Z,4.84
2017-05-06T20:31:30.871Z,5.20
2017-05-06T20:33:59.402Z,4.32
2017-05-06T20:36:28.514Z,4.66
2017-05-06T20:38:57.470Z,4.94
2017-05-06T20:41:26.758Z,4.86
2017-05-06T20:43:57.101Z,5.38
2017-05-06T20:46:26.408Z,5.10
2017-05-06T20:48:55.687Z,4.90
2017-05-06T20:51:25.056Z,5.48
2017-05-06T20:53:53.923Z,4.56
2017-05-06T20:56:22.734Z,4.54
2017-05-06T20:58:51.616Z,5.66
2017-05-06T21:01:19.997Z,5.06
2017-05-06T21:03:48.567Z,5.24
2017-05-06T21:06:17.679Z,6.22
2017-05-06T21:08:46.297Z,5.38
2017-05-06T21:11:14.937Z,4.82
2017-05-06T21:13:43.548Z,5.28
2017-05-06T21:16:11.834Z,5.24
2017-05-06T21:18:39.961Z,5.32
2017-05-06T21:21:08.070Z,5.56
2017-05-06T21:23:35.859Z,4.60
2017-05-06T21:26:03.822Z,5.00
2017-05-06T21:28:32.198Z,5.14
2017-05-06T21:30:59.844Z,4.44
2017-05-06T21:33:27.946Z,4.50
2017-05-06T21:35:56.127Z,5.78
2017-05-06T21:38:24.366Z,4.78
2017-05-06T21:40:51.912Z,5.02
2017-05-06T21:43:19.861Z,5.22
2017-05-06T21:45:47.827Z,4.86
2017-05-06T21:48:15.774Z,4.90
2017-05-06T21:50:44.076Z,4.70
2017-05-06T21:53:12.042Z,4.38
2017-05-06T21:55:39.591Z,4.02
2017-05-06T21:58:07.125Z,4.34
2017-05-06T22:00:35.467Z,4.30
2017-05-06T22:03:03.412Z,4.88
2017-05-06T22:05:30.947Z,4.10
2017-05-06T22:07:59.272Z,4.64
2017-05-06T22:10:27.205Z,4.80
2017-05-06T22:12:55.306Z,6.00
2017-05-06T22:15:22.862Z,4.36
2017-05-06T22:17:50.788Z,4.66
2017-05-06T22:20:18.334Z,4.78
2017-05-06T22:22:46.303Z,4.28
2017-05-06T22:25:14.249Z,4.84
2017-05-06T22:27:42.175Z,5.42
2017-05-06T22:30:10.133Z,5.02
2017-05-06T22:32:38.439Z,5.02
2017-05-06T22:35:06.375Z,4.62
2017-05-06T22:37:33.936Z,5.16
2017-05-06T22:40:01.872Z,5.20
2017-05-06T22:42:29.801Z,5.86
2017-05-06T22:44:57.359Z,5.30
2017-05-06T22:47:25.291Z,5.92
2017-05-06T22:49:52.839Z,5.66
2017-05-06T22:52:20.797Z,5.66
2017-05-06T22:54:49.234Z,6.62
2017-05-06T22:57:17.532Z,5.92
2017-05-06T22:59:45.489Z,5.54
2017-05-06T23:02:13.420Z,5.78
2017-05-06T23:04:41.358Z,5.56
2017-05-06T23:07:09.312Z,5.00
2017-05-06T23:09:37.262Z,5.74
2017-05-06T23:12:05.560Z,6.18
2017-05-06T23:14:33.533Z,5.22
2017-05-06T23:17:01.463Z,5.48
2017-05-06T23:19:29.769Z,5.94
2017-05-06T23:21:57.730Z,5.92
2017-05-06T23:24:25.661Z,5.46
2017-05-06T23:26:53.588Z,5.74
2017-05-06T23:29:21.166Z,5.88
2017-05-06T23:31:49.101Z,5.38
2017-05-06T23:34:17.032Z,6.08
2017-05-06T23:36:44.600Z,5.54
2017-05-06T23:39:12.532Z,4.68
2017-05-06T23:41:40.068Z,5.62
2017-05-06T23:44:08.145Z,5.12
2017-05-06T23:46:36.080Z,5.36
2017-05-06T23:49:04.026Z,6.16
2017-05-06T23:51:31.979Z,5.50
2017-05-06T23:53:59.520Z,4.86
2017-05-06T23:56:27.447Z,4.76
2017-05-06T23:58:55.007Z,6.34
